sensor_id;sensor_type;location;lat;lon;timestamp;P1;durP1;ratioP1;P2;durP2;ratioP2
11008;SDS011;5557;51.670;7.788;2023-04-29T00:00:39;23.03;;;17.13;;
11008;SDS011;5557;51.670;7.788;2023-04-29T00:03:05;23.10;;;16.67;;
11008;SDS011;5557;51.670;7.788;2023-04-29T00:05:34;29.97;;;17.97;;
11008;SDS011;5557;51.670;7.788;2023-04-29T00:08:02;26.10;;;17.40;;
11008;SDS011;5557;51.670;7.788;2023-04-29T00:10:32;28.00;;;18.33;;
11008;SDS011;5557;51.670;7.788;2023-04-29T00:12:59;27.00;;;17.83;;
11008;SDS011;5557;51.670;7.788;2023-04-29T00:15:26;34.03;;;18.80;;
11008;SDS011;5557;51.670;7.788;2023-04-29T00:17:53;32.23;;;19.60;;
11008;SDS011;5557;51.670;7.788;2023-04-29T00:20:22;28.53;;;18.90;;
11008;SDS011;5557;51.670;7.788;2023-04-29T00:22:49;29.43;;;19.37;;
11008;SDS011;5557;51.670;7.788;2023-04-29T00:25:16;26.67;;;19.80;;
11008;SDS011;5557;51.670;7.788;2023-04-29T00:27:43;28.53;;;19.50;;
11008;SDS011;5557;51.670;7.788;2023-04-29T00:30:17;31.07;;;19.00;;
11008;SDS011;5557;51.670;7.788;2023-04-29T00:32:46;29.50;;;19.97;;
11008;SDS011;5557;51.670;7.788;2023-04-29T00:35:13;32.70;;;19.20;;
11008;SDS011;5557;51.670;7.788;2023-04-29T00:37:40;30.00;;;18.93;;
11008;SDS011;5557;51.670;7.788;2023-04-29T00:40:08;51.37;;;22.53;;
11008;SDS011;5557;51.670;7.788;2023-04-29T00:42:37;34.33;;;21.40;;
11008;SDS011;5557;51.670;7.788;2023-04-29T00:45:05;33.07;;;20.40;;
11008;SDS011;5557;51.670;7.788;2023-04-29T00:47:33;39.83;;;21.77;;
11008;SDS011;5557;51.670;7.788;2023-04-29T00:50:00;38.97;;;24.47;;
11008;SDS011;5557;51.670;7.788;2023-04-29T00:52:28;44.13;;;24.70;;
11008;SDS011;5557;51.670;7.788;2023-04-29T00:54:57;43.57;;;25.20;;
11008;SDS011;5557;51.670;7.788;2023-04-29T00:57:25;47.27;;;26.07;;
11008;SDS011;5557;51.670;7.788;2023-04-29T00:59:57;42.23;;;25.37;;
11008;SDS011;5557;51.670;7.788;2023-04-29T01:02:25;51.23;;;27.90;;
11008;SDS011;5557;51.670;7.788;2023-04-29T01:04:53;45.40;;;26.73;;
11008;SDS011;5557;51.670;7.788;2023-04-29T01:10:30;51.67;;;28.80;;
11008;SDS011;5557;51.670;7.788;2023-04-29T01:15:45;61.57;;;27.60;;
11008;SDS011;5557;51.670;7.788;2023-04-29T01:18:25;51.87;;;27.47;;
11008;SDS011;5557;51.670;7.788;2023-04-29T01:20:55;46.27;;;29.20;;
11008;SDS011;5557;51.670;7.788;2023-04-29T01:23:25;52.07;;;27.63;;
11008;SDS011;5557;51.670;7.788;2023-04-29T01:25:52;61.10;;;30.53;;
11008;SDS011;5557;51.670;7.788;2023-04-29T01:28:31;54.67;;;28.37;;
11008;SDS011;5557;51.670;7.788;2023-04-29T01:31:18;57.57;;;30.30;;
11008;SDS011;5557;51.670;7.788;2023-04-29T01:39:59;61.37;;;32.10;;
11008;SDS011;5557;51.670;7.788;2023-04-29T01:42:58;64.23;;;31.67;;
11008;SDS011;5557;51.670;7.788;2023-04-29T01:45:27;59.23;;;31.20;;
11008;SDS011;5557;51.670;7.788;2023-04-29T01:47:57;67.10;;;33.80;;
11008;SDS011;5557;51.670;7.788;2023-04-29T01:50:26;63.50;;;32.77;;
11008;SDS011;5557;51.670;7.788;2023-04-29T01:52:53;86.70;;;39.77;;
11008;SDS011;5557;51.670;7.788;2023-04-29T01:55:20;96.13;;;43.30;;
11008;SDS011;5557;51.670;7.788;2023-04-29T01:57:49;116.07;;;47.60;;
11008;SDS011;5557;51.670;7.788;2023-04-29T02:00:18;120.30;;;48.80;;
11008;SDS011;5557;51.670;7.788;2023-04-29T02:02:48;114.43;;;46.87;;
11008;SDS011;5557;51.670;7.788;2023-04-29T02:05:15;113.33;;;47.73;;
11008;SDS011;5557;51.670;7.788;2023-04-29T02:07:42;127.53;;;49.73;;
11008;SDS011;5557;51.670;7.788;2023-04-29T02:10:10;124.47;;;48.07;;
11008;SDS011;5557;51.670;7.788;2023-04-29T02:12:37;106.50;;;45.20;;
11008;SDS011;5557;51.670;7.788;2023-04-29T02:15:04;106.30;;;42.37;;
11008;SDS011;5557;51.670;7.788;2023-04-29T02:17:34;112.87;;;42.80;;
11008;SDS011;5557;51.670;7.788;2023-04-29T02:20:01;98.17;;;44.00;;
11008;SDS011;5557;51.670;7.788;2023-04-29T02:22:29;99.83;;;42.50;;
11008;SDS011;5557;51.670;7.788;2023-04-29T02:24:57;92.40;;;40.90;;
11008;SDS011;5557;51.670;7.788;2023-04-29T02:27:24;85.93;;;39.10;;
11008;SDS011;5557;51.670;7.788;2023-04-29T02:29:51;76.03;;;38.13;;
11008;SDS011;5557;51.670;7.788;2023-04-29T02:32:19;93.57;;;39.57;;
11008;SDS011;5557;51.670;7.788;2023-04-29T02:34:46;81.83;;;37.83;;
11008;SDS011;5557;51.670;7.788;2023-04-29T02:37:14;87.60;;;37.90;;
11008;SDS011;5557;51.670;7.788;2023-04-29T02:39:43;75.17;;;36.43;;
11008;SDS011;5557;51.670;7.788;2023-04-29T02:42:10;81.07;;;35.77;;
11008;SDS011;5557;51.670;7.788;2023-04-29T02:44:45;76.87;;;35.40;;
11008;SDS011;5557;51.670;7.788;2023-04-29T02:47:13;82.23;;;36.17;;
11008;SDS011;5557;51.670;7.788;2023-04-29T02:49:41;77.50;;;36.17;;
11008;SDS011;5557;51.670;7.788;2023-04-29T02:52:07;78.90;;;37.93;;
11008;SDS011;5557;51.670;7.788;2023-04-29T02:54:34;91.93;;;38.10;;
11008;SDS011;5557;51.670;7.788;2023-04-29T02:57:01;80.67;;;36.00;;
11008;SDS011;5557;51.670;7.788;2023-04-29T02:59:29;80.97;;;34.90;;
11008;SDS011;5557;51.670;7.788;2023-04-29T03:01:55;70.27;;;34.13;;
11008;SDS011;5557;51.670;7.788;2023-04-29T03:04:28;75.40;;;32.33;;
11008;SDS011;5557;51.670;7.788;2023-04-29T03:06:55;67.13;;;32.53;;
11008;SDS011;5557;51.670;7.788;2023-04-29T03:09:22;67.47;;;30.57;;
11008;SDS011;5557;51.670;7.788;2023-04-29T03:12:03;67.20;;;30.10;;
11008;SDS011;5557;51.670;7.788;2023-04-29T03:14:33;72.57;;;30.10;;
11008;SDS011;5557;51.670;7.788;2023-04-29T03:17:01;57.53;;;28.47;;
11008;SDS011;5557;51.670;7.788;2023-04-29T03:19:28;58.63;;;27.17;;
11008;SDS011;5557;51.670;7.788;2023-04-29T03:21:56;55.77;;;28.10;;
11008;SDS011;5557;51.670;7.788;2023-04-29T03:24:24;48.77;;;27.43;;
11008;SDS011;5557;51.670;7.788;2023-04-29T03:26:51;48.27;;;26.10;;
11008;SDS011;5557;51.670;7.788;2023-04-29T03:29:18;49.03;;;27.20;;
11008;SDS011;5557;51.670;7.788;2023-04-29T03:31:45;49.63;;;25.67;;
11008;SDS011;5557;51.670;7.788;2023-04-29T03:34:13;52.73;;;25.10;;
11008;SDS011;5557;51.670;7.788;2023-04-29T03:36:40;48.47;;;26.50;;
11008;SDS011;5557;51.670;7.788;2023-04-29T03:39:07;54.23;;;27.50;;
11008;SDS011;5557;51.670;7.788;2023-04-29T03:41:34;59.80;;;27.77;;
11008;SDS011;5557;51.670;7.788;2023-04-29T03:44:02;52.93;;;27.60;;
11008;SDS011;5557;51.670;7.788;2023-04-29T03:46:29;59.17;;;27.53;;
11008;SDS011;5557;51.670;7.788;2023-04-29T03:48:56;51.23;;;27.57;;
11008;SDS011;5557;51.670;7.788;2023-04-29T03:51:37;53.47;;;27.00;;
11008;SDS011;5557;51.670;7.788;2023-04-29T03:54:04;57.27;;;26.60;;
11008;SDS011;5557;51.670;7.788;2023-04-29T03:56:31;49.80;;;26.80;;
11008;SDS011;5557;51.670;7.788;2023-04-29T03:59:01;48.53;;;27.23;;
11008;SDS011;5557;51.670;7.788;2023-04-29T04:01:28;57.33;;;28.13;;
11008;SDS011;5557;51.670;7.788;2023-04-29T04:03:55;57.20;;;30.17;;
11008;SDS011;5557;51.670;7.788;2023-04-29T04:06:23;54.57;;;30.20;;
11008;SDS011;5557;51.670;7.788;2023-04-29T04:08:50;59.87;;;30.27;;
11008;SDS011;5557;51.670;7.788;2023-04-29T04:11:17;60.53;;;31.10;;
11008;SDS011;5557;51.670;7.788;2023-04-29T04:13:49;69.40;;;32.73;;
11008;SDS011;5557;51.670;7.788;2023-04-29T04:16:17;62.13;;;31.47;;
11008;SDS011;5557;51.670;7.788;2023-04-29T04:18:48;64.00;;;32.43;;
11008;SDS011;5557;51.670;7.788;2023-04-29T04:21:15;65.73;;;34.70;;
11008;SDS011;5557;51.670;7.788;2023-04-29T04:23:43;60.53;;;30.40;;
11008;SDS011;5557;51.670;7.788;2023-04-29T04:26:12;63.90;;;33.07;;
11008;SDS011;5557;51.670;7.788;2023-04-29T04:28:39;63.90;;;32.57;;
11008;SDS011;5557;51.670;7.788;2023-04-29T04:31:06;64.60;;;33.80;;
11008;SDS011;5557;51.670;7.788;2023-04-29T04:33:34;68.03;;;32.77;;
11008;SDS011;5557;51.670;7.788;2023-04-29T04:36:02;67.47;;;35.70;;
11008;SDS011;5557;51.670;7.788;2023-04-29T04:38:29;63.93;;;34.60;;
11008;SDS011;5557;51.670;7.788;2023-04-29T04:40:58;68.90;;;34.50;;
11008;SDS011;5557;51.670;7.788;2023-04-29T04:43:25;69.97;;;35.63;;
11008;SDS011;5557;51.670;7.788;2023-04-29T04:45:52;77.67;;;36.10;;
11008;SDS011;5557;51.670;7.788;2023-04-29T04:48:20;66.73;;;35.67;;
11008;SDS011;5557;51.670;7.788;2023-04-29T04:50:46;64.67;;;33.47;;
11008;SDS011;5557;51.670;7.788;2023-04-29T04:53:13;66.30;;;32.93;;
11008;SDS011;5557;51.670;7.788;2023-04-29T04:55:41;61.80;;;34.50;;
11008;SDS011;5557;51.670;7.788;2023-04-29T04:58:08;67.43;;;35.63;;
11008;SDS011;5557;51.670;7.788;2023-04-29T05:00:35;66.07;;;33.70;;
11008;SDS011;5557;51.670;7.788;2023-04-29T05:03:02;70.63;;;33.83;;
11008;SDS011;5557;51.670;7.788;2023-04-29T05:05:32;60.73;;;33.70;;
11008;SDS011;5557;51.670;7.788;2023-04-29T05:07:58;66.73;;;34.77;;
11008;SDS011;5557;51.670;7.788;2023-04-29T05:10:29;58.97;;;32.67;;
11008;SDS011;5557;51.670;7.788;2023-04-29T05:13:03;57.67;;;33.53;;
11008;SDS011;5557;51.670;7.788;2023-04-29T05:15:30;60.67;;;32.30;;
11008;SDS011;5557;51.670;7.788;2023-04-29T05:18:11;58.60;;;31.97;;
11008;SDS011;5557;51.670;7.788;2023-04-29T05:20:40;58.20;;;32.03;;
11008;SDS011;5557;51.670;7.788;2023-04-29T05:23:07;56.13;;;32.03;;
11008;SDS011;5557;51.670;7.788;2023-04-29T05:25:35;55.07;;;32.00;;
11008;SDS011;5557;51.670;7.788;2023-04-29T05:28:02;54.20;;;33.10;;
11008;SDS011;5557;51.670;7.788;2023-04-29T05:30:29;56.20;;;31.23;;
11008;SDS011;5557;51.670;7.788;2023-04-29T05:32:58;56.80;;;31.40;;
11008;SDS011;5557;51.670;7.788;2023-04-29T05:35:25;53.53;;;30.57;;
11008;SDS011;5557;51.670;7.788;2023-04-29T05:37:53;52.30;;;30.43;;
11008;SDS011;5557;51.670;7.788;2023-04-29T05:40:19;55.17;;;33.50;;
11008;SDS011;5557;51.670;7.788;2023-04-29T05:43:21;46.43;;;29.30;;
11008;SDS011;5557;51.670;7.788;2023-04-29T05:45:49;49.43;;;30.60;;
11008;SDS011;5557;51.670;7.788;2023-04-29T05:48:18;51.10;;;29.67;;
11008;SDS011;5557;51.670;7.788;2023-04-29T05:50:45;52.47;;;30.97;;
11008;SDS011;5557;51.670;7.788;2023-04-29T05:53:13;49.73;;;30.90;;
11008;SDS011;5557;51.670;7.788;2023-04-29T05:55:40;52.33;;;30.60;;
11008;SDS011;5557;51.670;7.788;2023-04-29T05:58:19;49.53;;;30.30;;
11008;SDS011;5557;51.670;7.788;2023-04-29T06:01:01;49.80;;;30.80;;
11008;SDS011;5557;51.670;7.788;2023-04-29T06:03:28;50.70;;;30.83;;
11008;SDS011;5557;51.670;7.788;2023-04-29T06:05:57;50.20;;;30.53;;
11008;SDS011;5557;51.670;7.788;2023-04-29T06:08:24;49.53;;;29.80;;
11008;SDS011;5557;51.670;7.788;2023-04-29T06:10:52;49.97;;;30.90;;
11008;SDS011;5557;51.670;7.788;2023-04-29T06:13:19;48.50;;;32.10;;
11008;SDS011;5557;51.670;7.788;2023-04-29T06:15:47;49.97;;;31.40;;
11008;SDS011;5557;51.670;7.788;2023-04-29T06:18:14;46.20;;;29.80;;
11008;SDS011;5557;51.670;7.788;2023-04-29T06:20:42;49.10;;;30.23;;
11008;SDS011;5557;51.670;7.788;2023-04-29T06:23:08;53.23;;;32.73;;
11008;SDS011;5557;51.670;7.788;2023-04-29T06:25:36;50.20;;;32.60;;
11008;SDS011;5557;51.670;7.788;2023-04-29T06:28:03;48.33;;;31.77;;
11008;SDS011;5557;51.670;7.788;2023-04-29T06:30:31;61.43;;;33.83;;
11008;SDS011;5557;51.670;7.788;2023-04-29T06:33:01;57.20;;;32.60;;
11008;SDS011;5557;51.670;7.788;2023-04-29T06:35:29;50.40;;;31.63;;
11008;SDS011;5557;51.670;7.788;2023-04-29T06:37:56;51.37;;;32.07;;
11008;SDS011;5557;51.670;7.788;2023-04-29T06:40:25;50.10;;;30.50;;
11008;SDS011;5557;51.670;7.788;2023-04-29T06:42:59;50.97;;;31.50;;
11008;SDS011;5557;51.670;7.788;2023-04-29T06:45:31;48.27;;;29.73;;
11008;SDS011;5557;51.670;7.788;2023-04-29T06:47:58;52.87;;;31.63;;
11008;SDS011;5557;51.670;7.788;2023-04-29T06:50:25;52.90;;;30.30;;
11008;SDS011;5557;51.670;7.788;2023-04-29T06:52:54;57.87;;;31.40;;
11008;SDS011;5557;51.670;7.788;2023-04-29T06:55:25;49.40;;;32.37;;
11008;SDS011;5557;51.670;7.788;2023-04-29T06:57:53;50.50;;;29.27;;
11008;SDS011;5557;51.670;7.788;2023-04-29T07:00:20;45.50;;;27.90;;
11008;SDS011;5557;51.670;7.788;2023-04-29T07:02:48;45.53;;;28.17;;
11008;SDS011;5557;51.670;7.788;2023-04-29T07:05:22;48.63;;;29.37;;
11008;SDS011;5557;51.670;7.788;2023-04-29T07:07:49;43.80;;;26.63;;
11008;SDS011;5557;51.670;7.788;2023-04-29T07:10:19;44.67;;;27.83;;
11008;SDS011;5557;51.670;7.788;2023-04-29T07:12:46;45.67;;;27.80;;
11008;SDS011;5557;51.670;7.788;2023-04-29T07:15:13;44.67;;;28.30;;
11008;SDS011;5557;51.670;7.788;2023-04-29T07:17:40;45.33;;;28.73;;
11008;SDS011;5557;51.670;7.788;2023-04-29T07:20:08;40.93;;;26.63;;
11008;SDS011;5557;51.670;7.788;2023-04-29T07:22:35;49.73;;;28.17;;
11008;SDS011;5557;51.670;7.788;2023-04-29T07:25:03;46.73;;;28.10;;
11008;SDS011;5557;51.670;7.788;2023-04-29T07:27:33;48.77;;;30.27;;
11008;SDS011;5557;51.670;7.788;2023-04-29T07:30:00;52.47;;;29.47;;
11008;SDS011;5557;51.670;7.788;2023-04-29T07:32:28;51.90;;;29.10;;
11008;SDS011;5557;51.670;7.788;2023-04-29T07:34:57;50.93;;;29.50;;
11008;SDS011;5557;51.670;7.788;2023-04-29T07:37:25;46.70;;;28.63;;
11008;SDS011;5557;51.670;7.788;2023-04-29T07:39:52;53.03;;;31.43;;
11008;SDS011;5557;51.670;7.788;2023-04-29T07:42:19;50.40;;;30.93;;
11008;SDS011;5557;51.670;7.788;2023-04-29T07:44:46;53.57;;;32.30;;
11008;SDS011;5557;51.670;7.788;2023-04-29T07:47:13;67.37;;;33.63;;
11008;SDS011;5557;51.670;7.788;2023-04-29T07:49:40;61.17;;;33.37;;
11008;SDS011;5557;51.670;7.788;2023-04-29T07:52:07;58.17;;;33.10;;
11008;SDS011;5557;51.670;7.788;2023-04-29T07:54:35;60.70;;;36.87;;
11008;SDS011;5557;51.670;7.788;2023-04-29T07:57:02;66.80;;;38.67;;
11008;SDS011;5557;51.670;7.788;2023-04-29T07:59:30;59.40;;;33.90;;
11008;SDS011;5557;51.670;7.788;2023-04-29T08:01:57;70.30;;;37.30;;
11008;SDS011;5557;51.670;7.788;2023-04-29T08:04:25;65.07;;;35.77;;
11008;SDS011;5557;51.670;7.788;2023-04-29T08:06:52;64.20;;;35.80;;
11008;SDS011;5557;51.670;7.788;2023-04-29T08:09:19;73.67;;;38.13;;
11008;SDS011;5557;51.670;7.788;2023-04-29T08:11:46;66.70;;;39.20;;
11008;SDS011;5557;51.670;7.788;2023-04-29T08:14:13;73.93;;;39.33;;
11008;SDS011;5557;51.670;7.788;2023-04-29T08:16:40;73.63;;;41.77;;
11008;SDS011;5557;51.670;7.788;2023-04-29T08:19:07;90.97;;;42.60;;
11008;SDS011;5557;51.670;7.788;2023-04-29T08:21:34;69.70;;;38.67;;
11008;SDS011;5557;51.670;7.788;2023-04-29T08:24:04;68.97;;;39.87;;
11008;SDS011;5557;51.670;7.788;2023-04-29T08:26:31;70.30;;;41.10;;
11008;SDS011;5557;51.670;7.788;2023-04-29T08:28:58;65.07;;;38.67;;
11008;SDS011;5557;51.670;7.788;2023-04-29T08:31:25;67.30;;;38.53;;
11008;SDS011;5557;51.670;7.788;2023-04-29T08:33:53;65.27;;;40.10;;
11008;SDS011;5557;51.670;7.788;2023-04-29T08:36:20;61.63;;;38.03;;
11008;SDS011;5557;51.670;7.788;2023-04-29T08:38:47;62.67;;;37.57;;
11008;SDS011;5557;51.670;7.788;2023-04-29T08:41:17;70.53;;;40.87;;
11008;SDS011;5557;51.670;7.788;2023-04-29T08:43:44;69.80;;;39.60;;
11008;SDS011;5557;51.670;7.788;2023-04-29T08:46:12;70.00;;;36.63;;
11008;SDS011;5557;51.670;7.788;2023-04-29T08:48:40;70.30;;;38.37;;
11008;SDS011;5557;51.670;7.788;2023-04-29T08:51:10;59.53;;;36.90;;
11008;SDS011;5557;51.670;7.788;2023-04-29T08:53:41;71.83;;;40.23;;
11008;SDS011;5557;51.670;7.788;2023-04-29T08:56:11;70.53;;;37.70;;
11008;SDS011;5557;51.670;7.788;2023-04-29T08:58:53;65.47;;;38.40;;
11008;SDS011;5557;51.670;7.788;2023-04-29T09:01:26;76.80;;;38.87;;
11008;SDS011;5557;51.670;7.788;2023-04-29T09:04:20;58.10;;;36.20;;
11008;SDS011;5557;51.670;7.788;2023-04-29T09:07:16;54.83;;;34.83;;
11008;SDS011;5557;51.670;7.788;2023-04-29T09:09:43;55.17;;;35.20;;
11008;SDS011;5557;51.670;7.788;2023-04-29T09:12:11;52.17;;;34.93;;
11008;SDS011;5557;51.670;7.788;2023-04-29T09:14:38;57.63;;;34.03;;
11008;SDS011;5557;51.670;7.788;2023-04-29T09:17:05;66.53;;;33.70;;
11008;SDS011;5557;51.670;7.788;2023-04-29T09:19:33;50.13;;;31.83;;
11008;SDS011;5557;51.670;7.788;2023-04-29T09:22:02;48.63;;;31.50;;
11008;SDS011;5557;51.670;7.788;2023-04-29T09:24:30;48.70;;;31.57;;
11008;SDS011;5557;51.670;7.788;2023-04-29T09:26:58;51.33;;;31.33;;
11008;SDS011;5557;51.670;7.788;2023-04-29T09:29:25;51.30;;;31.17;;
11008;SDS011;5557;51.670;7.788;2023-04-29T09:31:53;52.00;;;32.30;;
11008;SDS011;5557;51.670;7.788;2023-04-29T09:34:31;44.00;;;29.97;;
11008;SDS011;5557;51.670;7.788;2023-04-29T09:37:03;41.90;;;27.50;;
11008;SDS011;5557;51.670;7.788;2023-04-29T09:39:53;51.13;;;30.87;;
11008;SDS011;5557;51.670;7.788;2023-04-29T09:42:20;44.60;;;29.00;;
11008;SDS011;5557;51.670;7.788;2023-04-29T09:44:47;42.27;;;28.63;;
11008;SDS011;5557;51.670;7.788;2023-04-29T09:47:14;38.40;;;26.47;;
11008;SDS011;5557;51.670;7.788;2023-04-29T09:49:43;37.97;;;23.33;;
11008;SDS011;5557;51.670;7.788;2023-04-29T09:52:14;36.87;;;25.77;;
11008;SDS011;5557;51.670;7.788;2023-04-29T09:54:45;32.27;;;25.27;;
11008;SDS011;5557;51.670;7.788;2023-04-29T09:57:12;33.10;;;23.10;;
11008;SDS011;5557;51.670;7.788;2023-04-29T09:59:41;26.77;;;21.47;;
11008;SDS011;5557;51.670;7.788;2023-04-29T10:02:13;28.97;;;23.17;;
11008;SDS011;5557;51.670;7.788;2023-04-29T10:04:49;31.33;;;22.27;;
11008;SDS011;5557;51.670;7.788;2023-04-29T10:07:24;30.23;;;20.47;;
11008;SDS011;5557;51.670;7.788;2023-04-29T10:09:53;33.10;;;23.37;;
11008;SDS011;5557;51.670;7.788;2023-04-29T10:12:21;34.60;;;21.23;;
11008;SDS011;5557;51.670;7.788;2023-04-29T10:14:54;25.63;;;21.27;;
11008;SDS011;5557;51.670;7.788;2023-04-29T10:20:46;25.53;;;20.00;;
11008;SDS011;5557;51.670;7.788;2023-04-29T10:23:14;26.87;;;20.20;;
11008;SDS011;5557;51.670;7.788;2023-04-29T10:25:46;27.77;;;19.90;;
11008;SDS011;5557;51.670;7.788;2023-04-29T10:28:17;25.50;;;19.50;;
11008;SDS011;5557;51.670;7.788;2023-04-29T10:30:50;25.90;;;20.47;;
11008;SDS011;5557;51.670;7.788;2023-04-29T10:33:22;27.57;;;21.10;;
11008;SDS011;5557;51.670;7.788;2023-04-29T10:35:53;37.00;;;20.87;;
11008;SDS011;5557;51.670;7.788;2023-04-29T10:38:34;23.90;;;19.13;;
11008;SDS011;5557;51.670;7.788;2023-04-29T10:41:09;28.03;;;18.67;;
11008;SDS011;5557;51.670;7.788;2023-04-29T10:43:51;32.13;;;21.13;;
11008;SDS011;5557;51.670;7.788;2023-04-29T10:46:19;30.80;;;19.67;;
11008;SDS011;5557;51.670;7.788;2023-04-29T10:48:55;26.93;;;19.00;;
11008;SDS011;5557;51.670;7.788;2023-04-29T10:51:31;26.47;;;19.23;;
11008;SDS011;5557;51.670;7.788;2023-04-29T10:54:09;28.13;;;19.57;;
11008;SDS011;5557;51.670;7.788;2023-04-29T10:56:48;28.23;;;20.93;;
11008;SDS011;5557;51.670;7.788;2023-04-29T10:59:20;24.10;;;20.07;;
11008;SDS011;5557;51.670;7.788;2023-04-29T11:02:08;24.07;;;18.80;;
11008;SDS011;5557;51.670;7.788;2023-04-29T11:07:36;21.83;;;17.63;;
11008;SDS011;5557;51.670;7.788;2023-04-29T11:10:03;28.70;;;19.13;;
11008;SDS011;5557;51.670;7.788;2023-04-29T11:12:32;20.27;;;17.57;;
11008;SDS011;5557;51.670;7.788;2023-04-29T11:15:01;23.23;;;17.27;;
11008;SDS011;5557;51.670;7.788;2023-04-29T11:17:35;23.47;;;17.80;;
11008;SDS011;5557;51.670;7.788;2023-04-29T11:20:06;25.43;;;17.43;;
11008;SDS011;5557;51.670;7.788;2023-04-29T11:22:41;22.70;;;16.13;;
11008;SDS011;5557;51.670;7.788;2023-04-29T11:25:16;25.00;;;17.10;;
11008;SDS011;5557;51.670;7.788;2023-04-29T11:27:46;20.80;;;16.60;;
11008;SDS011;5557;51.670;7.788;2023-04-29T11:30:14;19.70;;;15.60;;
11008;SDS011;5557;51.670;7.788;2023-04-29T11:32:43;24.73;;;17.87;;
11008;SDS011;5557;51.670;7.788;2023-04-29T11:35:14;22.27;;;16.70;;
11008;SDS011;5557;51.670;7.788;2023-04-29T11:37:43;19.63;;;14.90;;
11008;SDS011;5557;51.670;7.788;2023-04-29T11:40:12;25.73;;;16.20;;
11008;SDS011;5557;51.670;7.788;2023-04-29T11:42:41;18.63;;;16.03;;
11008;SDS011;5557;51.670;7.788;2023-04-29T11:45:18;18.13;;;14.90;;
11008;SDS011;5557;51.670;7.788;2023-04-29T11:47:46;24.20;;;14.90;;
11008;SDS011;5557;51.670;7.788;2023-04-29T11:50:14;17.73;;;14.80;;
11008;SDS011;5557;51.670;7.788;2023-04-29T11:52:46;15.60;;;13.97;;
11008;SDS011;5557;51.670;7.788;2023-04-29T11:55:45;18.30;;;14.93;;
11008;SDS011;5557;51.670;7.788;2023-04-29T11:58:13;21.47;;;14.63;;
11008;SDS011;5557;51.670;7.788;2023-04-29T12:00:44;22.43;;;15.07;;
11008;SDS011;5557;51.670;7.788;2023-04-29T12:03:13;18.73;;;14.77;;
11008;SDS011;5557;51.670;7.788;2023-04-29T12:05:45;27.00;;;15.30;;
11008;SDS011;5557;51.670;7.788;2023-04-29T12:08:22;18.63;;;15.43;;
11008;SDS011;5557;51.670;7.788;2023-04-29T12:10:55;23.23;;;15.53;;
11008;SDS011;5557;51.670;7.788;2023-04-29T12:13:28;17.93;;;15.40;;
11008;SDS011;5557;51.670;7.788;2023-04-29T12:15:56;19.00;;;15.07;;
11008;SDS011;5557;51.670;7.788;2023-04-29T12:18:24;25.60;;;15.70;;
11008;SDS011;5557;51.670;7.788;2023-04-29T12:20:53;19.93;;;15.07;;
11008;SDS011;5557;51.670;7.788;2023-04-29T12:23:22;20.13;;;15.30;;
11008;SDS011;5557;51.670;7.788;2023-04-29T12:25:56;22.63;;;16.07;;
11008;SDS011;5557;51.670;7.788;2023-04-29T12:28:25;20.77;;;15.70;;
11008;SDS011;5557;51.670;7.788;2023-04-29T12:30:52;21.00;;;14.73;;
11008;SDS011;5557;51.670;7.788;2023-04-29T12:33:21;17.80;;;14.67;;
11008;SDS011;5557;51.670;7.788;2023-04-29T12:35:49;17.03;;;14.03;;
11008;SDS011;5557;51.670;7.788;2023-04-29T12:38:24;18.30;;;15.13;;
11008;SDS011;5557;51.670;7.788;2023-04-29T12:40:57;19.73;;;13.77;;
11008;SDS011;5557;51.670;7.788;2023-04-29T12:43:29;19.97;;;13.87;;
11008;SDS011;5557;51.670;7.788;2023-04-29T12:46:07;19.10;;;14.03;;
11008;SDS011;5557;51.670;7.788;2023-04-29T12:48:35;18.43;;;13.63;;
11008;SDS011;5557;51.670;7.788;2023-04-29T12:51:07;14.90;;;12.40;;
11008;SDS011;5557;51.670;7.788;2023-04-29T12:53:35;20.60;;;14.70;;
11008;SDS011;5557;51.670;7.788;2023-04-29T12:56:02;16.40;;;12.80;;
11008;SDS011;5557;51.670;7.788;2023-04-29T12:58:30;14.63;;;13.30;;
11008;SDS011;5557;51.670;7.788;2023-04-29T13:00:59;19.70;;;13.40;;
11008;SDS011;5557;51.670;7.788;2023-04-29T13:03:26;18.90;;;12.50;;
11008;SDS011;5557;51.670;7.788;2023-04-29T13:05:54;17.57;;;14.10;;
11008;SDS011;5557;51.670;7.788;2023-04-29T13:08:21;13.70;;;12.40;;
11008;SDS011;5557;51.670;7.788;2023-04-29T13:10:48;14.50;;;12.77;;
11008;SDS011;5557;51.670;7.788;2023-04-29T13:13:15;18.20;;;14.10;;
11008;SDS011;5557;51.670;7.788;2023-04-29T13:15:42;17.57;;;13.33;;
11008;SDS011;5557;51.670;7.788;2023-04-29T13:18:09;22.30;;;14.10;;
11008;SDS011;5557;51.670;7.788;2023-04-29T13:20:37;15.90;;;11.47;;
11008;SDS011;5557;51.670;7.788;2023-04-29T13:23:07;24.90;;;15.90;;
11008;SDS011;5557;51.670;7.788;2023-04-29T13:25:34;21.13;;;16.27;;
11008;SDS011;5557;51.670;7.788;2023-04-29T13:28:01;20.30;;;13.60;;
11008;SDS011;5557;51.670;7.788;2023-04-29T13:30:28;22.13;;;13.57;;
11008;SDS011;5557;51.670;7.788;2023-04-29T13:32:55;17.23;;;13.23;;
11008;SDS011;5557;51.670;7.788;2023-04-29T13:35:34;17.87;;;13.60;;
11008;SDS011;5557;51.670;7.788;2023-04-29T13:38:03;13.93;;;12.53;;
11008;SDS011;5557;51.670;7.788;2023-04-29T13:40:30;16.03;;;12.50;;
11008;SDS011;5557;51.670;7.788;2023-04-29T13:43:04;20.33;;;14.47;;
11008;SDS011;5557;51.670;7.788;2023-04-29T13:45:32;17.70;;;14.07;;
11008;SDS011;5557;51.670;7.788;2023-04-29T13:48:07;14.27;;;12.37;;
11008;SDS011;5557;51.670;7.788;2023-04-29T13:50:54;11.60;;;10.47;;
11008;SDS011;5557;51.670;7.788;2023-04-29T13:53:42;10.33;;;9.33;;
11008;SDS011;5557;51.670;7.788;2023-04-29T13:56:12;9.50;;;8.50;;
11008;SDS011;5557;51.670;7.788;2023-04-29T13:58:42;15.60;;;9.37;;
11008;SDS011;5557;51.670;7.788;2023-04-29T14:01:12;10.20;;;9.30;;
11008;SDS011;5557;51.670;7.788;2023-04-29T14:03:59;10.90;;;9.53;;
11008;SDS011;5557;51.670;7.788;2023-04-29T14:06:26;12.87;;;11.60;;
11008;SDS011;5557;51.670;7.788;2023-04-29T14:08:53;15.40;;;11.67;;
11008;SDS011;5557;51.670;7.788;2023-04-29T14:11:20;12.60;;;10.60;;
11008;SDS011;5557;51.670;7.788;2023-04-29T14:13:47;12.80;;;11.50;;
11008;SDS011;5557;51.670;7.788;2023-04-29T14:16:14;17.47;;;12.57;;
11008;SDS011;5557;51.670;7.788;2023-04-29T14:18:42;17.13;;;11.53;;
11008;SDS011;5557;51.670;7.788;2023-04-29T14:21:09;13.43;;;11.27;;
11008;SDS011;5557;51.670;7.788;2023-04-29T14:23:36;13.10;;;10.80;;
11008;SDS011;5557;51.670;7.788;2023-04-29T14:26:03;12.03;;;10.07;;
11008;SDS011;5557;51.670;7.788;2023-04-29T14:28:50;17.27;;;11.67;;
11008;SDS011;5557;51.670;7.788;2023-04-29T14:31:23;13.53;;;11.47;;
11008;SDS011;5557;51.670;7.788;2023-04-29T14:33:57;13.23;;;11.80;;
11008;SDS011;5557;51.670;7.788;2023-04-29T14:36:24;13.30;;;10.00;;
11008;SDS011;5557;51.670;7.788;2023-04-29T14:38:52;14.57;;;11.63;;
11008;SDS011;5557;51.670;7.788;2023-04-29T14:41:19;12.10;;;10.57;;
11008;SDS011;5557;51.670;7.788;2023-04-29T14:43:48;11.37;;;10.20;;
11008;SDS011;5557;51.670;7.788;2023-04-29T14:46:16;13.17;;;10.57;;
11008;SDS011;5557;51.670;7.788;2023-04-29T14:48:43;11.60;;;10.47;;
11008;SDS011;5557;51.670;7.788;2023-04-29T14:51:10;10.80;;;9.70;;
11008;SDS011;5557;51.670;7.788;2023-04-29T14:53:37;11.43;;;10.30;;
11008;SDS011;5557;51.670;7.788;2023-04-29T14:56:04;18.00;;;9.50;;
11008;SDS011;5557;51.670;7.788;2023-04-29T14:58:33;13.50;;;10.37;;
11008;SDS011;5557;51.670;7.788;2023-04-29T15:01:00;13.60;;;9.50;;
11008;SDS011;5557;51.670;7.788;2023-04-29T15:03:27;10.60;;;9.57;;
11008;SDS011;5557;51.670;7.788;2023-04-29T15:05:54;11.70;;;9.47;;
11008;SDS011;5557;51.670;7.788;2023-04-29T15:08:21;16.30;;;8.97;;